createdAt,value
2016-10-21T00:00:27.605Z,8.61
2016-10-21T00:01:27.619Z,8.65
2016-10-21T00:02:27.645Z,8.65
2016-10-21T00:04:27.679Z,8.7
2016-10-21T00:05:27.703Z,8.66
2016-10-21T00:06:27.976Z,8.65
2016-10-21T00:07:27.746Z,8.7
2016-10-21T00:08:27.800Z,8.7
2016-10-21T00:09:42.703Z,8.62
2016-10-21T00:10:27.803Z,8.65
2016-10-21T00:11:27.819Z,8.65
2016-10-21T00:12:27.849Z,8.65
2016-10-21T00:13:27.862Z,8.65
2016-10-21T00:14:27.883Z,8.66
2016-10-21T00:15:28.160Z,8.63
2016-10-21T00:16:27.921Z,8.63
2016-10-21T00:17:27.946Z,8.66
2016-10-21T00:18:27.972Z,8.7
2016-10-21T00:19:27.984Z,8.62
2016-10-21T00:20:42.928Z,8.65
2016-10-21T00:21:28.020Z,8.55
2016-10-21T00:22:28.051Z,8.7
2016-10-21T00:23:28.062Z,8.68
2016-10-21T00:24:28.091Z,8.71
2016-10-21T00:25:43.028Z,8.65
2016-10-21T00:27:28.153Z,8.77
2016-10-21T00:28:28.165Z,8.66
2016-10-21T00:29:28.195Z,8.65
2016-10-21T00:30:28.206Z,8.73
2016-10-21T00:31:28.226Z,8.63
2016-10-21T00:32:28.247Z,8.68
2016-10-21T00:33:28.271Z,8.68
2016-10-21T00:34:28.286Z,8.74
2016-10-21T00:35:28.307Z,8.84
2016-10-21T00:36:28.335Z,8.76
2016-10-21T00:37:28.354Z,8.74
2016-10-21T00:38:28.366Z,8.74
2016-10-21T00:39:28.391Z,8.71
2016-10-21T00:40:28.664Z,8.74
2016-10-21T00:41:43.355Z,8.81
2016-10-21T00:42:28.456Z,8.74
2016-10-21T00:43:28.472Z,8.79
2016-10-21T00:44:28.495Z,8.76
2016-10-21T00:45:28.510Z,8.68
2016-10-21T00:46:28.528Z,8.8
2016-10-21T00:47:28.555Z,8.74
2016-10-21T00:48:28.575Z,8.76
2016-10-21T00:49:28.593Z,8.8
2016-10-21T00:50:28.613Z,8.71
2016-10-21T00:51:28.628Z,8.76
2016-10-21T00:53:28.680Z,8.66
2016-10-21T00:54:43.617Z,8.77
2016-10-21T00:55:28.717Z,8.73
2016-10-21T00:56:28.740Z,8.7
2016-10-21T00:57:43.676Z,8.7
2016-10-21T00:58:28.779Z,8.66
2016-10-21T00:59:29.099Z,8.66
2016-10-21T01:00:28.816Z,8.73
2016-10-21T01:01:28.831Z,8.66
2016-10-21T01:02:28.905Z,8.59
2016-10-21T01:03:28.895Z,8.62
2016-10-21T01:04:28.996Z,8.58
2016-10-21T01:05:28.916Z,8.61
2016-10-21T01:06:28.974Z,8.58
2016-10-21T01:07:29.008Z,8.59
2016-10-21T01:08:28.974Z,8.58
2016-10-21T01:09:28.992Z,8.44
2016-10-21T01:10:29.018Z,8.43
2016-10-21T01:11:29.036Z,8.47
2016-10-21T01:12:43.979Z,8.43
2016-10-21T01:13:29.082Z,8.38
2016-10-21T01:14:29.100Z,8.45
2016-10-21T01:15:29.125Z,8.43
2016-10-21T01:16:29.141Z,8.41
2016-10-21T01:17:29.155Z,8.41
2016-10-21T01:18:29.212Z,8.38
2016-10-21T01:20:29.223Z,8.4
2016-10-21T01:21:29.273Z,8.41
2016-10-21T01:22:29.256Z,8.48
2016-10-21T01:23:29.283Z,8.44
2016-10-21T01:24:29.295Z,8.48
2016-10-21T01:25:29.317Z,8.36
2016-10-21T01:26:29.328Z,8.38
2016-10-21T01:27:29.354Z,8.48
2016-10-21T01:28:29.374Z,8.38
2016-10-21T01:29:29.495Z,8.4
2016-10-21T01:30:29.451Z,8.33
2016-10-21T01:31:29.437Z,8.4
2016-10-21T01:32:29.455Z,8.44
2016-10-21T01:33:29.472Z,8.41
2016-10-21T01:34:29.493Z,8.45
2016-10-21T01:35:29.516Z,8.38
2016-10-21T01:36:29.537Z,8.44
2016-10-21T01:37:44.480Z,8.38
2016-10-21T01:39:29.600Z,8.47
2016-10-21T01:41:29.636Z,8.48
2016-10-21T01:42:29.690Z,8.47
2016-10-21T01:43:29.674Z,8.52
2016-10-21T01:44:44.614Z,8.44
2016-10-21T01:45:29.715Z,8.52
2016-10-21T01:46:29.732Z,8.47
2016-10-21T01:47:29.747Z,8.48
2016-10-21T01:48:29.773Z,8.45
2016-10-21T01:49:29.788Z,8.47
2016-10-21T01:50:29.842Z,8.5
2016-10-21T01:51:29.831Z,8.5
2016-10-21T01:52:29.848Z,8.47
2016-10-21T01:53:29.867Z,8.48
2016-10-21T01:54:29.927Z,8.5
2016-10-21T01:55:29.910Z,8.48
2016-10-21T01:56:29.929Z,8.55
2016-10-21T01:58:44.892Z,8.55
2016-10-21T01:59:44.910Z,8.52
2016-10-21T02:00:44.929Z,8.66
2016-10-21T02:01:30.027Z,8.62
2016-10-21T02:02:30.047Z,8.59
2016-10-21T02:03:30.070Z,8.65
2016-10-21T02:04:30.088Z,8.65
2016-10-21T02:05:30.110Z,8.62
2016-10-21T02:06:30.134Z,8.63
2016-10-21T02:07:30.150Z,8.58
2016-10-21T02:08:30.220Z,8.65
2016-10-21T02:09:30.258Z,8.59
2016-10-21T02:10:30.211Z,8.66
2016-10-21T02:11:45.153Z,8.7
2016-10-21T02:12:30.298Z,8.7
2016-10-21T02:13:30.263Z,8.61
2016-10-21T02:14:30.292Z,8.65
2016-10-21T02:16:45.252Z,8.73
2016-10-21T02:17:30.345Z,8.7
2016-10-21T02:18:30.373Z,8.7
2016-10-21T02:19:30.392Z,8.63
2016-10-21T02:20:30.406Z,8.76
2016-10-21T02:21:30.424Z,8.7
2016-10-21T02:22:30.442Z,8.68
2016-10-21T02:23:30.466Z,8.68
2016-10-21T02:24:30.495Z,8.71
2016-10-21T02:25:30.508Z,8.74
2016-10-21T02:26:45.455Z,8.71
2016-10-21T02:27:30.545Z,8.62
2016-10-21T02:28:30.569Z,8.7
2016-10-21T02:29:30.583Z,8.74
2016-10-21T02:31:30.623Z,8.61
2016-10-21T02:32:45.571Z,8.68
2016-10-21T02:33:30.667Z,8.74
2016-10-21T02:34:30.689Z,8.7
2016-10-21T02:35:30.712Z,8.7
2016-10-21T02:36:30.737Z,8.73
2016-10-21T02:37:30.744Z,8.61
2016-10-21T02:38:30.768Z,8.59
2016-10-21T02:40:30.807Z,8.66
2016-10-21T02:42:30.855Z,8.68
2016-10-21T02:43:30.873Z,8.77
2016-10-21T02:44:30.890Z,8.74
2016-10-21T02:45:30.915Z,8.76
2016-10-21T02:46:30.939Z,8.74
2016-10-21T02:47:45.872Z,8.74
2016-10-21T02:48:30.971Z,8.74
2016-10-21T02:49:30.992Z,8.83
2016-10-21T02:50:31.009Z,8.8
2016-10-21T02:51:31.033Z,8.76
2016-10-21T02:52:31.051Z,8.86
2016-10-21T02:53:31.069Z,8.76
2016-10-21T02:54:31.086Z,8.79
2016-10-21T02:55:31.114Z,8.81
2016-10-21T02:57:31.152Z,8.83
2016-10-21T02:58:31.177Z,8.83
2016-10-21T02:59:31.195Z,8.81
2016-10-21T03:00:46.137Z,8.79
2016-10-21T03:01:31.231Z,8.83
2016-10-21T03:02:31.253Z,8.79
2016-10-21T03:03:46.193Z,8.83
2016-10-21T03:04:31.292Z,8.8
2016-10-21T03:05:31.314Z,8.81
2016-10-21T03:06:31.334Z,8.84
2016-10-21T03:07:31.357Z,8.8
2016-10-21T03:08:31.376Z,8.8
2016-10-21T03:09:31.390Z,8.62
2016-10-21T03:10:31.446Z,8.66
2016-10-21T03:11:31.435Z,8.73
2016-10-21T03:12:31.453Z,8.7
2016-10-21T03:13:31.475Z,8.71
2016-10-21T03:15:31.548Z,8.77
2016-10-21T03:16:31.539Z,8.74
2016-10-21T03:17:31.557Z,8.74
2016-10-21T03:18:31.575Z,8.63
2016-10-21T03:19:46.518Z,8.74
2016-10-21T03:20:31.614Z,8.7
2016-10-21T03:21:31.637Z,8.7
2016-10-21T03:22:31.651Z,8.7
2016-10-21T03:23:31.678Z,8.74
2016-10-21T03:24:31.693Z,8.73
2016-10-21T03:25:31.718Z,8.7
2016-10-21T03:26:31.733Z,8.71
2016-10-21T03:27:31.755Z,8.73
2016-10-21T03:28:31.785Z,8.73
2016-10-21T03:29:31.800Z,8.71
2016-10-21T03:30:31.814Z,8.73
2016-10-21T03:31:31.833Z,8.63
2016-10-21T03:32:31.857Z,8.63
2016-10-21T03:33:32.178Z,8.71
2016-10-21T03:34:31.897Z,8.68
2016-10-21T03:35:46.839Z,8.74
2016-10-21T03:36:31.938Z,8.73
2016-10-21T03:37:31.956Z,8.66
2016-10-21T03:38:31.977Z,8.62
2016-10-21T03:39:32.004Z,8.63
2016-10-21T03:40:32.018Z,8.66
2016-10-21T03:41:32.039Z,8.79
2016-10-21T03:42:32.366Z,8.71
2016-10-21T03:43:32.076Z,8.73
2016-10-21T03:44:32.101Z,8.7
2016-10-21T03:45:32.119Z,8.73
2016-10-21T03:46:32.141Z,8.7
2016-10-21T03:47:32.160Z,8.65
2016-10-21T03:48:32.182Z,8.65
2016-10-21T03:49:32.193Z,8.58
2016-10-21T03:50:32.228Z,8.62
2016-10-21T03:51:47.161Z,8.65
2016-10-21T03:52:32.263Z,8.63
2016-10-21T03:53:32.276Z,8.56
2016-10-21T03:54:32.301Z,8.59
2016-10-21T03:55:32.317Z,8.68
2016-10-21T03:56:32.340Z,8.56
2016-10-21T03:57:32.361Z,8.66
2016-10-21T03:58:32.385Z,8.66
2016-10-21T03:59:32.401Z,8.65
2016-10-21T04:00:32.419Z,8.63
2016-10-21T04:01:32.445Z,8.68
2016-10-21T04:02:47.386Z,8.61
2016-10-21T04:03:32.478Z,8.63
2016-10-21T04:04:32.497Z,8.68
2016-10-21T04:05:32.518Z,8.65
2016-10-21T04:06:32.551Z,8.62
2016-10-21T04:07:47.484Z,8.59
2016-10-21T04:08:32.579Z,8.59
2016-10-21T04:09:32.641Z,8.65
2016-10-21T04:10:32.629Z,8.65
2016-10-21T04:11:32.644Z,8.63
2016-10-21T04:12:32.663Z,8.63
2016-10-21T04:13:47.645Z,8.68
2016-10-21T04:14:32.703Z,8.68
2016-10-21T04:15:32.724Z,8.56
2016-10-21T04:16:32.748Z,8.59
2016-10-21T04:18:32.782Z,8.55
2016-10-21T04:19:32.804Z,8.56
2016-10-21T04:21:32.844Z,8.55
2016-10-21T04:22:47.788Z,8.55
2016-10-21T04:23:32.891Z,8.61
2016-10-21T04:24:32.937Z,8.53
2016-10-21T04:25:32.924Z,8.55
2016-10-21T04:26:33.196Z,8.52
2016-10-21T04:27:32.966Z,8.58
2016-10-21T04:28:32.982Z,8.62
2016-10-21T04:29:33.006Z,8.56
2016-10-21T04:30:33.024Z,8.55
2016-10-21T04:31:33.047Z,8.55
2016-10-21T04:32:33.064Z,8.5
2016-10-21T04:33:33.093Z,8.55
2016-10-21T04:34:33.142Z,8.55
2016-10-21T04:35:33.131Z,8.56
2016-10-21T04:36:33.211Z,8.56
2016-10-21T04:37:33.463Z,8.47
2016-10-21T04:38:33.183Z,8.56
2016-10-21T04:39:48.125Z,8.55
2016-10-21T04:40:33.230Z,8.58
2016-10-21T04:41:33.251Z,8.52
2016-10-21T04:42:33.569Z,8.61
2016-10-21T04:43:33.292Z,8.62
2016-10-21T04:44:33.309Z,8.56
2016-10-21T04:45:33.334Z,8.55
2016-10-21T04:46:33.347Z,8.5
2016-10-21T04:47:33.367Z,8.5
2016-10-21T04:48:33.385Z,8.56
2016-10-21T04:49:33.426Z,8.56
2016-10-21T04:50:33.439Z,8.55
2016-10-21T04:51:33.450Z,8.58
2016-10-21T04:52:33.473Z,8.59
2016-10-21T04:53:33.490Z,8.61
2016-10-21T04:54:48.433Z,8.48
2016-10-21T04:55:33.537Z,8.56
2016-10-21T04:56:33.554Z,8.55
2016-10-21T04:57:33.569Z,8.53
2016-10-21T04:58:33.603Z,8.59
2016-10-21T04:59:33.609Z,8.5
2016-10-21T05:00:33.634Z,8.58
2016-10-21T05:01:33.654Z,8.55
2016-10-21T05:02:33.680Z,8.56
2016-10-21T05:03:33.945Z,8.48
2016-10-21T05:04:33.706Z,8.41
2016-10-21T05:05:33.729Z,8.45
2016-10-21T05:06:33.790Z,8.45
2016-10-21T05:07:33.772Z,8.45
2016-10-21T05:08:33.789Z,8.41
2016-10-21T05:09:48.733Z,8.47
2016-10-21T05:10:48.862Z,8.43
2016-10-21T05:11:33.850Z,8.52
2016-10-21T05:12:33.875Z,8.47
2016-10-21T05:13:33.895Z,8.47
2016-10-21T05:14:34.165Z,8.55
2016-10-21T05:15:33.930Z,8.5
2016-10-21T05:16:33.960Z,8.52
2016-10-21T05:17:33.976Z,8.53
2016-10-21T05:18:33.997Z,8.41
2016-10-21T05:19:34.022Z,8.4
2016-10-21T05:20:34.041Z,8.43
2016-10-21T05:21:48.981Z,8.41
2016-10-21T05:22:34.072Z,8.48
2016-10-21T05:23:34.096Z,8.47
2016-10-21T05:24:49.039Z,8.38
2016-10-21T05:25:34.137Z,8.52
2016-10-21T05:26:49.074Z,8.47
2016-10-21T05:27:34.174Z,8.45
2016-10-21T05:28:34.202Z,8.48
2016-10-21T05:29:34.221Z,8.48
2016-10-21T05:30:34.243Z,8.44
2016-10-21T05:31:34.265Z,8.48
2016-10-21T05:32:34.278Z,8.5
2016-10-21T05:33:34.303Z,8.48
2016-10-21T05:34:34.320Z,8.47
2016-10-21T05:35:49.264Z,8.4
2016-10-21T05:36:34.358Z,8.47
2016-10-21T05:37:34.382Z,8.4
2016-10-21T05:38:34.401Z,8.41
2016-10-21T05:40:34.440Z,8.43
2016-10-21T05:41:34.455Z,8.45
2016-10-21T05:42:49.442Z,8.47
2016-10-21T05:43:34.701Z,8.43
2016-10-21T05:44:34.528Z,8.43
2016-10-21T05:45:34.539Z,8.44
2016-10-21T05:46:34.566Z,8.43
2016-10-21T05:47:34.581Z,8.33
2016-10-21T05:48:34.605Z,8.58
2016-10-21T05:49:34.619Z,8.48
2016-10-21T05:50:34.643Z,8.41
2016-10-21T05:51:34.659Z,8.34
2016-10-21T05:52:34.677Z,8.34
2016-10-21T05:53:34.701Z,8.4
2016-10-21T05:54:34.725Z,8.45
2016-10-21T05:55:49.664Z,8.48
2016-10-21T05:56:34.763Z,8.43
2016-10-21T05:57:49.704Z,8.44
2016-10-21T05:58:34.803Z,8.5
2016-10-21T05:59:34.830Z,8.44
2016-10-21T06:00:34.844Z,8.43
2016-10-21T06:01:34.866Z,8.53
2016-10-21T06:02:34.888Z,8.43
2016-10-21T06:03:34.905Z,8.53
2016-10-21T06:04:34.922Z,8.44
2016-10-21T06:05:34.945Z,8.41
2016-10-21T06:06:34.968Z,8.48
2016-10-21T06:07:34.985Z,8.53
2016-10-21T06:08:49.929Z,8.56
2016-10-21T06:09:35.024Z,8.5
2016-10-21T06:10:35.045Z,8.47
2016-10-21T06:11:35.067Z,8.5
2016-10-21T06:12:35.087Z,8.56
2016-10-21T06:13:35.419Z,8.47
2016-10-21T06:14:35.125Z,8.56
2016-10-21T06:15:35.151Z,8.56
2016-10-21T06:16:35.168Z,8.52
2016-10-21T06:17:35.180Z,8.48
2016-10-21T06:18:35.212Z,8.53
2016-10-21T06:19:35.235Z,8.53
2016-10-21T06:20:35.305Z,8.48
2016-10-21T06:21:35.265Z,8.59
2016-10-21T06:22:35.292Z,8.55
2016-10-21T06:24:35.328Z,8.56
2016-10-21T06:25:35.349Z,8.58
2016-10-21T06:26:35.372Z,8.56
2016-10-21T06:27:35.390Z,8.56
2016-10-21T06:28:35.410Z,8.63
2016-10-21T06:29:50.359Z,8.56
2016-10-21T06:30:35.456Z,8.58
2016-10-21T06:31:35.478Z,8.52
2016-10-21T06:32:35.496Z,8.58
2016-10-21T06:33:35.513Z,8.53
2016-10-21T06:34:35.533Z,8.56
2016-10-21T06:35:50.788Z,8.56
2016-10-21T06:36:35.576Z,8.58
2016-10-21T06:37:35.596Z,8.5
2016-10-21T06:38:35.618Z,8.52
2016-10-21T06:39:35.631Z,8.59
2016-10-21T06:40:35.660Z,8.56
2016-10-21T06:42:35.695Z,8.53
2016-10-21T06:43:35.711Z,8.59
2016-10-21T06:44:35.736Z,8.55
2016-10-21T06:45:50.676Z,8.61
2016-10-21T06:46:35.776Z,8.63
2016-10-21T06:47:35.790Z,8.59
2016-10-21T06:48:35.824Z,8.55
2016-10-21T06:49:35.842Z,8.66
2016-10-21T06:50:35.857Z,8.7
2016-10-21T06:52:35.904Z,8.71
2016-10-21T06:53:35.914Z,8.71
2016-10-21T06:54:35.942Z,8.68
2016-10-21T06:55:35.960Z,8.68
2016-10-21T06:56:35.992Z,8.68
2016-10-21T06:57:50.925Z,8.71
2016-10-21T06:58:36.075Z,8.63
2016-10-21T06:59:36.035Z,8.55
2016-10-21T07:00:36.061Z,8.58
2016-10-21T07:01:50.999Z,8.68
2016-10-21T07:02:36.103Z,8.62
2016-10-21T07:03:36.166Z,8.68
2016-10-21T07:04:36.145Z,8.71
2016-10-21T07:05:36.168Z,8.73
2016-10-21T07:06:36.186Z,8.83
2016-10-21T07:07:36.209Z,8.8
2016-10-21T07:08:36.228Z,8.83
2016-10-21T07:09:36.247Z,8.86
2016-10-21T07:10:36.264Z,8.89
2016-10-21T07:11:36.287Z,8.87
2016-10-21T07:12:36.304Z,8.91
2016-10-21T07:13:36.330Z,8.95
2016-10-21T07:14:36.348Z,8.92
2016-10-21T07:15:36.372Z,8.96
2016-10-21T07:16:36.398Z,8.91
2016-10-21T07:17:51.663Z,8.87
2016-10-21T07:18:36.431Z,8.91
2016-10-21T07:19:36.454Z,8.89
2016-10-21T07:20:36.472Z,8.81
2016-10-21T07:21:36.534Z,8.84
2016-10-21T07:22:36.510Z,8.92
2016-10-21T07:23:36.536Z,8.95
2016-10-21T07:24:36.550Z,8.87
2016-10-21T07:25:36.576Z,9.1
2016-10-21T07:26:36.595Z,9.05
2016-10-21T07:27:36.614Z,9.21
2016-10-21T07:28:36.631Z,9.18
2016-10-21T07:29:36.663Z,9.31
2016-10-21T07:30:36.687Z,9.38
2016-10-21T07:31:36.695Z,9.32
2016-10-21T07:32:51.650Z,9.42
2016-10-21T07:33:36.743Z,9.36
2016-10-21T07:34:36.811Z,9.33
2016-10-21T07:35:36.782Z,9.36
2016-10-21T07:36:37.120Z,9.35
2016-10-21T07:37:36.823Z,9.33
2016-10-21T07:38:36.845Z,9.42
2016-10-21T07:39:36.871Z,9.48
2016-10-21T07:40:51.848Z,9.42
2016-10-21T07:41:36.905Z,9.46
2016-10-21T07:43:36.949Z,9.65
2016-10-21T07:44:36.978Z,9.72
2016-10-21T07:45:36.992Z,9.79
2016-10-21T07:46:37.023Z,9.74
2016-10-21T07:47:51.959Z,9.75
2016-10-21T07:48:37.157Z,9.79
2016-10-21T07:49:37.083Z,9.86
2016-10-21T07:50:37.095Z,9.9
2016-10-21T07:51:37.129Z,9.91
2016-10-21T07:52:37.137Z,9.9
2016-10-21T07:53:37.170Z,9.94
2016-10-21T07:55:52.143Z,9.76
2016-10-21T07:56:37.225Z,9.84
2016-10-21T07:57:37.257Z,9.86
2016-10-21T07:58:37.273Z,9.72
2016-10-21T07:59:52.219Z,9.72
2016-10-21T08:00:37.324Z,9.61
2016-10-21T08:01:37.332Z,9.56
2016-10-21T08:02:37.406Z,9.57
2016-10-21T08:03:52.300Z,9.56
2016-10-21T08:04:52.317Z,9.56
2016-10-21T08:05:37.423Z,9.57
2016-10-21T08:06:37.747Z,9.57
2016-10-21T08:07:37.466Z,9.61
2016-10-21T08:08:37.493Z,9.46
2016-10-21T08:09:37.515Z,9.43
2016-10-21T08:10:37.525Z,9.51
2016-10-21T08:11:37.550Z,9.42
2016-10-21T08:12:37.571Z,9.46
2016-10-21T08:13:37.601Z,9.39
2016-10-21T08:14:37.617Z,9.43
2016-10-21T08:15:37.687Z,9.43
2016-10-21T08:16:37.659Z,9.47
2016-10-21T08:17:37.673Z,9.53
2016-10-21T08:18:37.694Z,9.54
2016-10-21T08:19:37.723Z,9.56
2016-10-21T08:20:52.664Z,9.56
2016-10-21T08:21:38.014Z,9.42
2016-10-21T08:22:37.779Z,9.42
2016-10-21T08:23:37.802Z,9.46
2016-10-21T08:24:37.820Z,9.48
2016-10-21T08:25:37.850Z,9.42
2016-10-21T08:26:37.861Z,9.47
2016-10-21T08:27:37.885Z,9.43
2016-10-21T08:28:37.910Z,9.4
2016-10-21T08:29:37.928Z,9.43
2016-10-21T08:30:37.985Z,9.4
2016-10-21T08:31:38.219Z,9.43
2016-10-21T08:32:37.987Z,9.46
2016-10-21T08:33:38.012Z,9.64
2016-10-21T08:34:52.952Z,9.58
2016-10-21T08:35:38.058Z,9.57
2016-10-21T08:36:52.996Z,9.56
2016-10-21T08:37:38.098Z,9.57
2016-10-21T08:38:38.114Z,9.64
2016-10-21T08:39:38.140Z,9.72
2016-10-21T08:40:38.152Z,9.69
2016-10-21T08:41:38.427Z,9.79
2016-10-21T08:42:38.204Z,9.83
2016-10-21T08:43:38.223Z,9.94
2016-10-21T08:44:38.246Z,9.93
2016-10-21T08:45:38.261Z,9.94
2016-10-21T08:47:38.319Z,9.99
2016-10-21T08:48:38.325Z,9.97
2016-10-21T08:49:53.270Z,9.96
2016-10-21T08:50:53.291Z,9.96
2016-10-21T08:51:38.391Z,9.97
2016-10-21T08:52:53.332Z,10.01
2016-10-21T08:53:38.440Z,10.07
2016-10-21T08:54:38.458Z,10.12
2016-10-21T08:55:38.511Z,10.17
2016-10-21T08:56:38.497Z,10.29
2016-10-21T08:57:38.548Z,10.26
2016-10-21T08:58:38.541Z,10.27
2016-10-21T08:59:38.561Z,10.44
2016-10-21T09:00:38.576Z,10.59
2016-10-21T09:01:53.533Z,10.53
2016-10-21T09:02:38.623Z,10.38
2016-10-21T09:04:38.666Z,10.36
2016-10-21T09:05:38.693Z,10.32
2016-10-21T09:06:38.720Z,10.41
2016-10-21T09:07:53.657Z,10.3
2016-10-21T09:09:38.771Z,10.44
2016-10-21T09:10:39.052Z,10.66
2016-10-21T09:11:38.831Z,10.63
2016-10-21T09:12:38.846Z,10.67
2016-10-21T09:13:38.870Z,10.68
2016-10-21T09:14:39.194Z,10.71
2016-10-21T09:15:38.904Z,10.92
2016-10-21T09:16:38.932Z,11.09
2016-10-21T09:18:38.980Z,10.96
2016-10-21T09:19:53.920Z,10.86
2016-10-21T09:20:53.942Z,10.76
2016-10-21T09:21:39.049Z,10.7
2016-10-21T09:22:39.063Z,10.85
2016-10-21T09:23:39.086Z,10.88
2016-10-21T09:24:39.110Z,10.7
2016-10-21T09:25:39.134Z,10.94
2016-10-21T09:26:39.147Z,11.07
2016-10-21T09:27:39.178Z,11.19
2016-10-21T09:28:39.200Z,11.15
2016-10-21T09:29:39.220Z,11.15
2016-10-21T09:30:39.255Z,11.21
2016-10-21T09:31:39.268Z,11.22
2016-10-21T09:32:39.281Z,11.28
2016-10-21T09:33:39.314Z,11.44
2016-10-21T09:34:39.328Z,11.47
2016-10-21T09:35:39.356Z,11.49
2016-10-21T09:36:39.372Z,11.49
2016-10-21T09:37:39.651Z,11.49
2016-10-21T09:39:54.361Z,11.55
2016-10-21T09:40:39.473Z,11.65
2016-10-21T09:41:39.488Z,11.73
2016-10-21T09:42:39.516Z,11.6
2016-10-21T09:44:39.557Z,11.52
2016-10-21T09:45:39.827Z,11.57
2016-10-21T09:47:39.621Z,11.51
2016-10-21T09:48:39.854Z,11.61
2016-10-21T09:49:54.596Z,11.75
2016-10-21T09:50:39.689Z,11.7
2016-10-21T09:52:39.745Z,11.65
2016-10-21T09:53:39.758Z,11.54
2016-10-21T09:54:39.785Z,11.55
2016-10-21T09:55:54.727Z,11.39
2016-10-21T09:56:39.822Z,11.28
2016-10-21T09:57:39.850Z,11.39
2016-10-21T09:58:39.875Z,11.37
2016-10-21T09:59:40.148Z,11.35
2016-10-21T10:00:39.916Z,11.58
2016-10-21T10:01:39.952Z,11.6
2016-10-21T10:02:39.964Z,11.58
2016-10-21T10:03:39.988Z,11.55
2016-10-21T10:04:40.010Z,11.57
2016-10-21T10:05:40.032Z,11.37
2016-10-21T10:06:40.155Z,11.19
2016-10-21T10:07:40.071Z,11.24
2016-10-21T10:08:40.100Z,10.94
2016-10-21T10:09:40.121Z,10.92
2016-10-21T10:10:55.064Z,10.91
2016-10-21T10:11:55.087Z,10.96
2016-10-21T10:12:40.189Z,10.86
2016-10-21T10:13:40.219Z,11.04
2016-10-21T10:14:40.341Z,11.14
2016-10-21T10:15:40.256Z,11.22
2016-10-21T10:16:40.282Z,11.25
2016-10-21T10:17:40.301Z,11.27
2016-10-21T10:18:40.323Z,11.47
2016-10-21T10:19:40.345Z,11.55
2016-10-21T10:20:40.370Z,11.58
2016-10-21T10:21:40.384Z,11.44
2016-10-21T10:22:40.419Z,11.22
2016-10-21T10:23:40.433Z,11.1
2016-10-21T10:24:40.459Z,11.07
2016-10-21T10:25:40.483Z,11.06
2016-10-21T10:26:40.512Z,11.02
2016-10-21T10:27:55.457Z,11.14
2016-10-21T10:28:40.575Z,11.1
2016-10-21T10:29:40.562Z,11.09
2016-10-21T10:30:40.592Z,11.11
2016-10-21T10:31:40.612Z,11.22
2016-10-21T10:32:40.638Z,11.21
2016-10-21T10:33:40.651Z,11.27
2016-10-21T10:34:40.675Z,11.32
2016-10-21T10:35:40.708Z,11.37
2016-10-21T10:37:40.749Z,11.52
2016-10-21T10:38:40.764Z,11.57
2016-10-21T10:39:40.790Z,11.49
2016-10-21T10:40:40.809Z,11.43
2016-10-21T10:41:40.845Z,11.43
2016-10-21T10:42:55.780Z,11.24
2016-10-21T10:43:40.892Z,11.28
2016-10-21T10:44:40.899Z,11.27
2016-10-21T10:45:40.926Z,11.22
2016-10-21T10:46:40.954Z,11.14
2016-10-21T10:47:40.971Z,11.19
2016-10-21T10:49:41.021Z,11.4
2016-10-21T10:50:41.042Z,11.57
2016-10-21T10:52:41.076Z,11.65
2016-10-21T10:53:41.111Z,11.65
2016-10-21T10:54:41.144Z,11.64
2016-10-21T10:55:41.151Z,11.58
2016-10-21T10:56:56.093Z,11.46
2016-10-21T10:57:41.188Z,11.35
2016-10-21T10:58:41.217Z,11.42
2016-10-21T10:59:56.158Z,11.35
2016-10-21T11:00:41.261Z,11.4
2016-10-21T11:01:41.281Z,11.39
2016-10-21T11:02:41.302Z,11.37
2016-10-21T11:03:41.328Z,11.39
2016-10-21T11:04:41.384Z,11.24
2016-10-21T11:05:41.373Z,11.21
2016-10-21T11:06:41.393Z,11.14
2016-10-21T11:07:41.459Z,11.07
2016-10-21T11:08:41.447Z,10.99
2016-10-21T11:09:41.455Z,11.03
2016-10-21T11:10:56.408Z,11.07
2016-10-21T11:11:41.507Z,10.96
2016-10-21T11:12:41.524Z,10.96
2016-10-21T11:13:41.549Z,10.97
2016-10-21T11:14:56.796Z,11.11
2016-10-21T11:15:41.632Z,11.21
2016-10-21T11:16:42.507Z,11.33
2016-10-21T11:17:41.642Z,11.46
2016-10-21T11:19:41.680Z,11.73
2016-10-21T11:20:41.706Z,11.7
2016-10-21T11:21:41.730Z,11.83
2016-10-21T11:22:41.752Z,11.86
2016-10-21T11:23:41.784Z,11.78
2016-10-21T11:24:41.793Z,11.8
2016-10-21T11:25:41.819Z,11.83
2016-10-21T11:26:41.843Z,11.76
2016-10-21T11:27:41.860Z,11.67
2016-10-21T11:29:41.903Z,11.62
2016-10-21T11:30:56.851Z,11.43
2016-10-21T11:31:41.947Z,11.27
2016-10-21T11:32:41.977Z,11.15
2016-10-21T11:33:42.001Z,11.1
2016-10-21T11:34:42.015Z,11.14
2016-10-21T11:35:42.040Z,11.19
2016-10-21T11:37:42.081Z,11.17
2016-10-21T11:38:42.101Z,11.14
2016-10-21T11:39:42.386Z,11.11
2016-10-21T11:40:42.159Z,11.24
2016-10-21T11:41:42.333Z,11.33
2016-10-21T11:42:42.198Z,11.25
2016-10-21T11:43:42.218Z,11.32
2016-10-21T11:44:42.236Z,11.28
2016-10-21T11:45:42.263Z,11.42
2016-10-21T11:46:57.207Z,11.39
2016-10-21T11:47:42.310Z,11.43
2016-10-21T11:48:42.328Z,11.44
2016-10-21T11:49:42.349Z,11.52
2016-10-21T11:50:42.366Z,11.51
2016-10-21T11:51:42.391Z,11.47
2016-10-21T11:52:42.415Z,11.55
2016-10-21T11:53:42.439Z,11.57
2016-10-21T11:54:42.461Z,11.57
2016-10-21T11:55:42.489Z,11.7
2016-10-21T11:57:42.886Z,11.44
2016-10-21T11:58:42.555Z,11.52
2016-10-21T11:59:42.578Z,11.44
2016-10-21T12:00:42.608Z,11.51
2016-10-21T12:01:42.609Z,11.54
2016-10-21T12:02:57.561Z,11.61
2016-10-21T12:03:42.656Z,11.57
2016-10-21T12:04:42.684Z,11.46
2016-10-21T12:05:42.705Z,11.52
2016-10-21T12:06:42.723Z,11.54
2016-10-21T12:07:57.682Z,11.69
2016-10-21T12:09:42.790Z,11.7
2016-10-21T12:10:42.814Z,11.76
2016-10-21T12:11:42.833Z,11.79
2016-10-21T12:12:42.860Z,11.8
2016-10-21T12:13:57.808Z,11.8
2016-10-21T12:14:42.907Z,11.79
2016-10-21T12:15:42.926Z,11.76
2016-10-21T12:16:42.949Z,11.65
2016-10-21T12:17:57.896Z,11.82
2016-10-21T12:18:42.991Z,11.65
2016-10-21T12:19:43.018Z,11.65
2016-10-21T12:20:43.044Z,11.75
2016-10-21T12:21:43.058Z,11.7
2016-10-21T12:22:43.089Z,11.73
2016-10-21T12:23:43.108Z,11.64
2016-10-21T12:24:43.130Z,11.64
2016-10-21T12:25:43.160Z,11.6
2016-10-21T12:26:43.178Z,11.57
2016-10-21T12:27:43.196Z,11.52
2016-10-21T12:29:43.250Z,11.51
2016-10-21T12:30:43.267Z,11.29
2016-10-21T12:31:43.292Z,11.27
2016-10-21T12:32:43.322Z,11.19
2016-10-21T12:33:43.332Z,11.07
2016-10-21T12:34:58.272Z,11.14
2016-10-21T12:35:43.372Z,11.1
2016-10-21T12:36:43.402Z,11.1
2016-10-21T12:37:43.450Z,11.18
2016-10-21T12:38:43.443Z,11.21
2016-10-21T12:39:43.468Z,11.21
2016-10-21T12:41:43.515Z,11.11
2016-10-21T12:42:43.529Z,11
2016-10-21T12:43:43.559Z,10.89
2016-10-21T12:45:43.593Z,10.74
2016-10-21T12:46:43.622Z,10.68
2016-10-21T12:47:43.645Z,10.73
2016-10-21T12:48:43.663Z,10.71
2016-10-21T12:49:58.603Z,10.81
2016-10-21T12:50:43.706Z,10.71
2016-10-21T12:51:43.729Z,10.6
2016-10-21T12:52:43.755Z,10.51
2016-10-21T12:53:43.776Z,10.48
2016-10-21T12:55:43.819Z,10.4
2016-10-21T12:56:44.139Z,10.44
2016-10-21T12:57:43.856Z,10.42
2016-10-21T12:58:43.882Z,10.4
2016-10-21T12:59:43.904Z,10.33
2016-10-21T13:00:43.921Z,10.4
2016-10-21T13:01:43.945Z,10.44
2016-10-21T13:02:43.963Z,10.44
2016-10-21T13:03:43.998Z,10.47
2016-10-21T13:04:44.046Z,10.48
2016-10-21T13:05:58.959Z,10.34
2016-10-21T13:06:44.054Z,10.34
2016-10-21T13:07:44.077Z,10.45
2016-10-21T13:08:44.127Z,10.38
2016-10-21T13:09:44.377Z,10.38
2016-10-21T13:11:44.158Z,10.34
2016-10-21T13:12:44.184Z,10.29
2016-10-21T13:13:44.206Z,10.33
2016-10-21T13:14:44.227Z,10.47
2016-10-21T13:15:44.248Z,10.33
2016-10-21T13:16:59.196Z,10.4
2016-10-21T13:17:44.299Z,10.38
2016-10-21T13:18:44.321Z,10.34
2016-10-21T13:19:44.331Z,10.33
2016-10-21T13:20:44.364Z,10.33
2016-10-21T13:21:59.303Z,10.36
2016-10-21T13:22:44.403Z,10.36
2016-10-21T13:23:44.421Z,10.38
2016-10-21T13:24:44.438Z,10.47
2016-10-21T13:25:44.715Z,10.56
2016-10-21T13:26:44.485Z,10.34
2016-10-21T13:27:44.513Z,10.44
2016-10-21T13:28:44.531Z,10.38
2016-10-21T13:29:44.560Z,10.36
2016-10-21T13:30:44.656Z,10.33
2016-10-21T13:31:44.600Z,10.26
2016-10-21T13:32:44.612Z,10.32
2016-10-21T13:33:59.561Z,10.34
2016-10-21T13:34:44.662Z,10.36
2016-10-21T13:35:44.682Z,10.38
2016-10-21T13:36:44.714Z,10.44
2016-10-21T13:37:59.646Z,10.51
2016-10-21T13:38:44.745Z,10.47
2016-10-21T13:39:44.767Z,10.48
2016-10-21T13:40:44.789Z,10.51
2016-10-21T13:41:44.813Z,10.51
2016-10-21T13:42:44.835Z,10.56
2016-10-21T13:43:44.857Z,10.55
2016-10-21T13:44:44.877Z,10.66
2016-10-21T13:45:44.898Z,10.6
2016-10-21T13:46:44.915Z,10.6
2016-10-21T13:47:59.868Z,10.61
2016-10-21T13:48:44.955Z,10.45
2016-10-21T13:49:45.234Z,10.53
2016-10-21T13:50:44.999Z,10.55
2016-10-21T13:51:45.325Z,10.51
2016-10-21T13:52:59.970Z,10.59
2016-10-21T13:53:45.073Z,10.73